createdAt,value
2019-01-27T00:00:28.457Z,4.45
2019-01-27T00:01:04.113Z,5.60
2019-01-27T00:01:38.986Z,4.55
2019-01-27T00:02:14.009Z,4.50
2019-01-27T00:02:48.503Z,4.20
2019-01-27T00:03:24.094Z,4.05
2019-01-27T00:03:59.062Z,4.85
2019-01-27T00:04:33.622Z,3.55
2019-01-27T00:05:08.187Z,5.30
2019-01-27T00:05:42.688Z,5.15
2019-01-27T00:06:17.275Z,4.25
2019-01-27T00:06:52.493Z,4.25
2019-01-27T00:07:27.000Z,3.85
2019-01-27T00:08:01.657Z,4.25
2019-01-27T00:08:36.234Z,4.95
2019-01-27T00:09:10.879Z,4.60
2019-01-27T00:09:45.549Z,4.33
2019-01-27T00:10:20.122Z,4.75
2019-01-27T00:10:54.687Z,5.17
2019-01-27T00:11:29.244Z,5.95
2019-01-27T00:12:03.905Z,4.70
2019-01-27T00:12:38.421Z,6.15
2019-01-27T00:13:12.987Z,5.80
2019-01-27T00:13:47.570Z,4.85
2019-01-27T00:14:22.065Z,4.95
2019-01-27T00:14:56.672Z,5.12
2019-01-27T00:15:31.503Z,6.25
2019-01-27T00:16:06.371Z,6.20
2019-01-27T00:16:40.946Z,5.85
2019-01-27T00:17:15.444Z,5.45
2019-01-27T00:17:50.121Z,5.65
2019-01-27T00:18:24.690Z,5.92
2019-01-27T00:18:59.200Z,5.62
2019-01-27T00:19:33.750Z,5.03
2019-01-27T00:20:11.503Z,5.08
2019-01-27T00:20:46.109Z,4.70
2019-01-27T00:21:20.804Z,4.08
2019-01-27T00:21:55.307Z,4.55
2019-01-27T00:22:31.083Z,4.03
2019-01-27T00:23:05.666Z,4.33
2019-01-27T00:23:40.950Z,4.47
2019-01-27T00:24:15.454Z,4.00
2019-01-27T00:24:50.032Z,4.37
2019-01-27T00:25:24.537Z,4.67
2019-01-27T00:25:59.120Z,4.92
2019-01-27T00:26:33.633Z,4.45
2019-01-27T00:27:08.144Z,4.80
2019-01-27T00:27:42.658Z,4.75
2019-01-27T00:28:17.224Z,3.52
2019-01-27T00:28:51.775Z,5.30
2019-01-27T00:29:26.343Z,4.40
2019-01-27T00:30:01.017Z,4.75
2019-01-27T00:30:35.764Z,4.10
2019-01-27T00:31:10.321Z,4.35
2019-01-27T00:31:44.833Z,3.65
2019-01-27T00:32:19.416Z,4.58
2019-01-27T00:32:54.468Z,3.30
2019-01-27T00:33:29.040Z,4.62
2019-01-27T00:34:03.777Z,3.70
2019-01-27T00:34:39.016Z,4.62
2019-01-27T00:35:13.525Z,4.15
2019-01-27T00:35:48.159Z,3.42
2019-01-27T00:36:22.739Z,3.62
2019-01-27T00:36:57.310Z,4.17
2019-01-27T00:37:31.818Z,4.17
2019-01-27T00:38:06.625Z,3.62
2019-01-27T00:38:41.608Z,4.58
2019-01-27T00:39:16.119Z,4.20
2019-01-27T00:39:50.641Z,3.65
2019-01-27T00:40:25.231Z,4.58
2019-01-27T00:40:59.904Z,4.05
2019-01-27T00:41:34.393Z,3.65
2019-01-27T00:42:09.065Z,3.75
2019-01-27T00:42:44.092Z,4.05
2019-01-27T00:43:18.753Z,4.00
2019-01-27T00:43:53.262Z,3.80
2019-01-27T00:44:27.839Z,4.60
2019-01-27T00:45:02.417Z,6.42
2019-01-27T00:45:36.929Z,4.60
2019-01-27T00:46:11.419Z,4.70
2019-01-27T00:46:47.010Z,5.25
2019-01-27T00:47:22.805Z,3.67
2019-01-27T00:47:57.341Z,4.05
2019-01-27T00:48:31.992Z,3.87
2019-01-27T00:49:06.563Z,3.83
2019-01-27T00:49:43.655Z,3.55
2019-01-27T00:50:21.303Z,3.25
2019-01-27T00:50:55.872Z,3.50
2019-01-27T00:51:30.627Z,3.85
2019-01-27T00:52:05.759Z,4.05
2019-01-27T00:52:40.472Z,3.65
2019-01-27T00:53:14.962Z,3.40
2019-01-27T00:53:49.470Z,3.50
2019-01-27T00:54:24.063Z,4.00
2019-01-27T00:54:58.724Z,3.70
2019-01-27T00:55:33.293Z,4.12
2019-01-27T00:56:07.968Z,4.05
2019-01-27T00:56:42.544Z,3.30
2019-01-27T00:57:17.039Z,3.37
2019-01-27T00:57:51.698Z,3.75
2019-01-27T00:58:26.284Z,3.62
2019-01-27T00:59:00.850Z,3.47
2019-01-27T00:59:35.383Z,3.20
2019-01-27T01:00:13.333Z,4.12
2019-01-27T01:00:47.828Z,3.15
2019-01-27T01:01:23.053Z,3.50
2019-01-27T01:01:57.821Z,4.08
2019-01-27T01:02:32.382Z,4.78
2019-01-27T01:03:07.149Z,3.95
2019-01-27T01:03:41.716Z,4.72
2019-01-27T01:04:16.315Z,4.00
2019-01-27T01:04:50.880Z,4.03
2019-01-27T01:05:25.731Z,4.15
2019-01-27T01:06:01.190Z,3.47
2019-01-27T01:06:35.862Z,3.60
2019-01-27T01:07:10.527Z,3.60
2019-01-27T01:07:46.721Z,3.25
2019-01-27T01:08:21.295Z,3.47
2019-01-27T01:08:56.947Z,3.40
2019-01-27T01:09:31.496Z,3.00
2019-01-27T01:10:09.594Z,3.47
2019-01-27T01:10:48.892Z,3.25
2019-01-27T01:11:23.396Z,3.65
2019-01-27T01:11:58.120Z,3.45
2019-01-27T01:12:32.621Z,3.10
2019-01-27T01:13:07.301Z,3.00
2019-01-27T01:13:41.797Z,3.08
2019-01-27T01:14:16.287Z,3.65
2019-01-27T01:14:50.855Z,4.22
2019-01-27T01:15:25.638Z,3.80
2019-01-27T01:16:00.211Z,3.10
2019-01-27T01:16:34.709Z,4.90
2019-01-27T01:17:09.466Z,3.80
2019-01-27T01:17:44.008Z,3.58
2019-01-27T01:18:18.504Z,3.40
2019-01-27T01:18:53.080Z,3.40
2019-01-27T01:19:27.641Z,3.47
2019-01-27T01:20:02.705Z,3.05
2019-01-27T01:20:37.255Z,3.62
2019-01-27T01:21:11.757Z,2.75
2019-01-27T01:21:46.274Z,2.67
2019-01-27T01:22:20.770Z,2.77
2019-01-27T01:22:55.394Z,2.90
2019-01-27T01:23:29.879Z,3.60
2019-01-27T01:24:05.017Z,2.87
2019-01-27T01:24:39.524Z,3.40
2019-01-27T01:25:17.036Z,2.83
2019-01-27T01:25:51.577Z,3.25
2019-01-27T01:26:26.246Z,3.15
2019-01-27T01:27:01.817Z,3.50
2019-01-27T01:27:36.390Z,2.83
2019-01-27T01:28:11.124Z,2.90
2019-01-27T01:28:45.613Z,3.35
2019-01-27T01:29:20.108Z,3.02
2019-01-27T01:29:54.621Z,3.95
2019-01-27T01:30:30.592Z,3.47
2019-01-27T01:31:05.331Z,3.17
2019-01-27T01:31:39.835Z,3.15
2019-01-27T01:32:14.413Z,3.02
2019-01-27T01:32:50.625Z,3.50
2019-01-27T01:33:25.184Z,3.45
2019-01-27T01:33:59.699Z,2.90
2019-01-27T01:34:34.204Z,4.12
2019-01-27T01:35:10.778Z,3.70
2019-01-27T01:35:45.311Z,3.92
2019-01-27T01:36:19.881Z,3.75
2019-01-27T01:36:54.402Z,3.80
2019-01-27T01:37:29.109Z,3.40
2019-01-27T01:38:03.617Z,3.20
2019-01-27T01:38:38.175Z,4.03
2019-01-27T01:39:12.676Z,3.22
2019-01-27T01:39:47.258Z,3.40
2019-01-27T01:40:22.149Z,3.80
2019-01-27T01:40:56.655Z,3.75
2019-01-27T01:41:31.217Z,3.62
2019-01-27T01:42:06.324Z,3.20
2019-01-27T01:42:40.887Z,2.90
2019-01-27T01:43:15.388Z,3.08
2019-01-27T01:43:50.208Z,3.35
2019-01-27T01:44:24.705Z,3.10
2019-01-27T01:44:59.200Z,3.10
2019-01-27T01:45:34.150Z,3.62
2019-01-27T01:46:08.657Z,3.20
2019-01-27T01:46:43.159Z,3.40
2019-01-27T01:47:17.659Z,3.58
2019-01-27T01:47:52.236Z,2.80
2019-01-27T01:48:26.873Z,3.10
2019-01-27T01:49:01.359Z,2.92
2019-01-27T01:49:36.119Z,3.50
2019-01-27T01:50:10.796Z,2.92
2019-01-27T01:50:45.336Z,3.50
2019-01-27T01:51:19.825Z,3.87
2019-01-27T01:51:54.332Z,3.20
2019-01-27T01:52:28.821Z,3.87
2019-01-27T01:53:03.945Z,3.17
2019-01-27T01:53:38.740Z,3.33
2019-01-27T01:54:13.321Z,3.40
2019-01-27T01:54:47.836Z,3.75
2019-01-27T01:55:22.396Z,3.25
2019-01-27T01:55:57.117Z,4.25
2019-01-27T01:56:31.620Z,3.08
2019-01-27T01:57:06.188Z,3.70
2019-01-27T01:57:40.690Z,3.55
2019-01-27T01:58:15.196Z,3.72
2019-01-27T01:58:49.680Z,3.62
2019-01-27T01:59:24.188Z,3.75
2019-01-27T01:59:58.680Z,2.90
2019-01-27T02:00:33.440Z,3.37
2019-01-27T02:01:08.005Z,3.30
2019-01-27T02:01:42.664Z,3.27
2019-01-27T02:02:17.199Z,3.00
2019-01-27T02:02:51.768Z,2.85
2019-01-27T02:03:26.375Z,2.72
2019-01-27T02:04:01.355Z,2.83
2019-01-27T02:04:36.015Z,3.10
2019-01-27T02:05:12.795Z,3.20
2019-01-27T02:05:47.326Z,2.42
2019-01-27T02:06:21.820Z,3.08
2019-01-27T02:06:56.295Z,2.85
2019-01-27T02:07:30.805Z,2.92
2019-01-27T02:08:05.595Z,2.92
2019-01-27T02:08:40.082Z,2.98
2019-01-27T02:09:14.670Z,3.20
2019-01-27T02:09:49.284Z,3.50
2019-01-27T02:10:24.599Z,3.33
2019-01-27T02:10:59.188Z,2.70
2019-01-27T02:11:33.808Z,2.67
2019-01-27T02:12:08.495Z,3.67
2019-01-27T02:12:43.233Z,3.35
2019-01-27T02:13:17.746Z,3.47
2019-01-27T02:13:52.247Z,3.40
2019-01-27T02:14:26.807Z,2.55
2019-01-27T02:15:01.316Z,2.92
2019-01-27T02:15:41.907Z,3.00
2019-01-27T02:16:16.392Z,2.90
2019-01-27T02:16:51.383Z,2.80
2019-01-27T02:17:26.007Z,3.27
2019-01-27T02:18:00.575Z,2.80
2019-01-27T02:18:35.317Z,2.62
2019-01-27T02:19:09.818Z,2.33
2019-01-27T02:19:44.308Z,3.02
2019-01-27T02:20:18.869Z,2.85
2019-01-27T02:20:53.364Z,3.00
2019-01-27T02:21:28.045Z,2.22
2019-01-27T02:22:02.548Z,2.42
2019-01-27T02:22:37.043Z,3.10
2019-01-27T02:23:11.537Z,2.25
2019-01-27T02:23:46.035Z,2.30
2019-01-27T02:24:20.610Z,2.85
2019-01-27T02:24:55.094Z,2.42
2019-01-27T02:25:29.661Z,3.08
2019-01-27T02:26:06.124Z,2.62
2019-01-27T02:26:40.626Z,2.85
2019-01-27T02:27:15.401Z,2.77
2019-01-27T02:27:49.922Z,2.87
2019-01-27T02:28:24.489Z,2.75
2019-01-27T02:28:58.976Z,3.35
2019-01-27T02:29:33.478Z,2.70
2019-01-27T02:30:11.093Z,2.40
2019-01-27T02:30:45.728Z,2.72
2019-01-27T02:31:20.215Z,2.70
2019-01-27T02:31:54.792Z,2.37
2019-01-27T02:32:29.367Z,2.60
2019-01-27T02:33:04.007Z,2.90
2019-01-27T02:33:38.570Z,2.95
2019-01-27T02:34:13.199Z,2.58
2019-01-27T02:34:47.692Z,2.67
2019-01-27T02:35:22.260Z,2.62
2019-01-27T02:35:56.749Z,2.80
2019-01-27T02:36:31.236Z,2.50
2019-01-27T02:37:05.875Z,3.02
2019-01-27T02:37:40.445Z,2.00
2019-01-27T02:38:14.935Z,2.25
2019-01-27T02:38:49.447Z,2.70
2019-01-27T02:39:24.090Z,2.52
2019-01-27T02:39:58.601Z,2.80
2019-01-27T02:40:33.124Z,2.60
2019-01-27T02:41:07.623Z,2.50
2019-01-27T02:41:42.167Z,2.30
2019-01-27T02:42:16.709Z,2.45
2019-01-27T02:42:51.205Z,2.92
2019-01-27T02:43:25.906Z,2.67
2019-01-27T02:44:00.413Z,2.40
2019-01-27T02:44:34.908Z,2.75
2019-01-27T02:45:15.160Z,2.72
2019-01-27T02:45:49.919Z,2.98
2019-01-27T02:46:24.514Z,3.77
2019-01-27T02:46:59.142Z,2.40
2019-01-27T02:47:33.645Z,2.83
2019-01-27T02:48:08.208Z,2.37
2019-01-27T02:48:42.755Z,2.55
2019-01-27T02:49:17.240Z,2.72
2019-01-27T02:49:51.780Z,2.42
2019-01-27T02:50:26.353Z,2.52
2019-01-27T02:51:01.162Z,2.47
2019-01-27T02:51:35.659Z,2.90
2019-01-27T02:52:10.404Z,2.42
2019-01-27T02:52:44.893Z,2.60
2019-01-27T02:53:19.452Z,2.47
2019-01-27T02:53:53.936Z,3.15
2019-01-27T02:54:28.442Z,2.52
2019-01-27T02:55:03.284Z,2.40
2019-01-27T02:55:37.860Z,2.65
2019-01-27T02:56:12.495Z,3.05
2019-01-27T02:56:47.492Z,3.55
2019-01-27T02:57:21.993Z,2.35
2019-01-27T02:57:59.154Z,2.00
2019-01-27T02:58:33.722Z,2.62
2019-01-27T02:59:08.215Z,2.67
2019-01-27T02:59:42.715Z,2.95
2019-01-27T03:00:22.448Z,2.60
2019-01-27T03:00:56.949Z,2.33
2019-01-27T03:01:31.513Z,2.95
2019-01-27T03:02:06.599Z,3.10
2019-01-27T03:02:41.188Z,2.95
2019-01-27T03:03:15.764Z,2.10
2019-01-27T03:03:50.280Z,3.20
2019-01-27T03:04:24.787Z,2.60
2019-01-27T03:05:00.994Z,2.75
2019-01-27T03:05:46.212Z,2.72
2019-01-27T03:06:22.345Z,2.55
2019-01-27T03:06:58.495Z,2.60
2019-01-27T03:07:34.777Z,2.95
2019-01-27T03:08:09.368Z,2.47
2019-01-27T03:08:44.114Z,2.30
2019-01-27T03:09:19.232Z,3.20
2019-01-27T03:09:53.806Z,2.85
2019-01-27T03:10:28.462Z,2.55
2019-01-27T03:11:02.982Z,2.30
2019-01-27T03:11:49.744Z,2.27
2019-01-27T03:12:24.336Z,2.22
2019-01-27T03:12:58.842Z,2.00
2019-01-27T03:13:33.424Z,1.85
2019-01-27T03:14:07.920Z,2.40
2019-01-27T03:14:42.423Z,2.37
2019-01-27T03:15:18.408Z,2.08
2019-01-27T03:15:52.966Z,1.98
2019-01-27T03:16:27.449Z,1.82
2019-01-27T03:17:01.967Z,2.12
2019-01-27T03:17:36.465Z,2.50
2019-01-27T03:18:10.955Z,1.95
2019-01-27T03:18:45.465Z,1.90
2019-01-27T03:19:19.982Z,1.75
2019-01-27T03:19:54.529Z,2.30
2019-01-27T03:20:29.411Z,2.40
2019-01-27T03:21:03.977Z,2.05
2019-01-27T03:21:41.438Z,2.55
2019-01-27T03:22:15.996Z,2.33
2019-01-27T03:22:50.499Z,2.50
2019-01-27T03:23:25.083Z,2.17
2019-01-27T03:23:59.586Z,2.55
2019-01-27T03:24:34.172Z,2.58
2019-01-27T03:25:14.897Z,2.20
2019-01-27T03:25:52.701Z,2.00
2019-01-27T03:26:27.405Z,2.05
2019-01-27T03:27:02.085Z,2.65
2019-01-27T03:27:36.646Z,2.45
2019-01-27T03:28:11.153Z,2.12
2019-01-27T03:28:45.646Z,2.12
2019-01-27T03:29:20.162Z,2.60
2019-01-27T03:29:54.733Z,2.15
2019-01-27T03:30:29.597Z,2.37
2019-01-27T03:31:04.304Z,2.80
2019-01-27T03:31:38.866Z,2.10
2019-01-27T03:32:13.466Z,2.90
2019-01-27T03:32:48.041Z,2.70
2019-01-27T03:33:22.609Z,2.37
2019-01-27T03:33:57.249Z,2.60
2019-01-27T03:34:31.860Z,2.83
2019-01-27T03:35:09.186Z,2.35
2019-01-27T03:35:43.679Z,2.22
2019-01-27T03:36:18.181Z,2.83
2019-01-27T03:36:52.837Z,2.10
2019-01-27T03:37:33.267Z,2.33
2019-01-27T03:38:09.380Z,1.80
2019-01-27T03:38:43.940Z,2.20
2019-01-27T03:39:18.509Z,2.27
2019-01-27T03:39:53.116Z,2.08
2019-01-27T03:40:27.792Z,2.05
2019-01-27T03:41:02.297Z,1.67
2019-01-27T03:41:36.937Z,2.37
2019-01-27T03:42:11.526Z,2.15
2019-01-27T03:42:46.090Z,2.02
2019-01-27T03:43:20.712Z,2.60
2019-01-27T03:43:55.239Z,2.30
2019-01-27T03:44:30.611Z,2.30
2019-01-27T03:45:08.425Z,2.40
2019-01-27T03:45:42.912Z,1.95
2019-01-27T03:46:18.128Z,2.00
2019-01-27T03:46:52.629Z,2.25
2019-01-27T03:47:27.456Z,1.82
2019-01-27T03:48:01.989Z,2.30
2019-01-27T03:48:36.633Z,2.10
2019-01-27T03:49:11.135Z,1.95
2019-01-27T03:49:45.640Z,1.80
2019-01-27T03:50:21.077Z,2.30
2019-01-27T03:50:55.635Z,2.17
2019-01-27T03:51:30.235Z,2.27
2019-01-27T03:52:05.244Z,1.90
2019-01-27T03:52:40.204Z,2.05
2019-01-27T03:53:14.772Z,2.47
2019-01-27T03:53:49.281Z,2.55
2019-01-27T03:54:23.777Z,2.65
2019-01-27T03:54:58.277Z,1.80
2019-01-27T03:55:32.937Z,2.20
2019-01-27T03:56:08.074Z,2.52
2019-01-27T03:56:44.121Z,1.90
2019-01-27T03:57:18.692Z,2.25
2019-01-27T03:57:53.209Z,2.00
2019-01-27T03:58:27.762Z,1.98
2019-01-27T03:59:02.364Z,2.22
2019-01-27T03:59:36.881Z,2.10
2019-01-27T04:00:22.242Z,1.90
2019-01-27T04:00:56.964Z,1.80
2019-01-27T04:01:40.462Z,1.77
2019-01-27T04:02:14.956Z,2.00
2019-01-27T04:02:49.692Z,1.98
2019-01-27T04:03:24.181Z,1.85
2019-01-27T04:03:58.773Z,1.87
2019-01-27T04:04:33.738Z,1.90
2019-01-27T04:05:08.314Z,1.90
2019-01-27T04:05:44.393Z,4.05
2019-01-27T04:06:18.904Z,1.42
2019-01-27T04:06:53.454Z,1.27
2019-01-27T04:07:28.047Z,1.70
2019-01-27T04:08:02.769Z,1.85
2019-01-27T04:08:37.300Z,1.32
2019-01-27T04:09:12.007Z,2.08
2019-01-27T04:09:46.608Z,1.95
2019-01-27T04:10:23.296Z,2.15
2019-01-27T04:10:57.805Z,1.87
2019-01-27T04:11:32.370Z,2.20
2019-01-27T04:12:06.859Z,1.65
2019-01-27T04:12:41.372Z,2.33
2019-01-27T04:13:15.985Z,1.85
2019-01-27T04:13:50.554Z,2.10
2019-01-27T04:14:25.114Z,1.55
2019-01-27T04:14:59.681Z,2.00
2019-01-27T04:15:35.032Z,2.20
2019-01-27T04:16:09.699Z,2.15
2019-01-27T04:16:44.281Z,2.40
2019-01-27T04:17:19.050Z,1.98
2019-01-27T04:17:53.629Z,1.60
2019-01-27T04:18:28.129Z,1.85
2019-01-27T04:19:02.717Z,1.87
2019-01-27T04:19:37.353Z,1.90
2019-01-27T04:20:15.048Z,1.60
2019-01-27T04:20:49.545Z,1.45
2019-01-27T04:21:24.117Z,1.90
2019-01-27T04:21:58.613Z,2.08
2019-01-27T04:22:33.169Z,1.50
2019-01-27T04:23:07.733Z,1.70
2019-01-27T04:23:42.239Z,2.17
2019-01-27T04:24:16.738Z,1.85
2019-01-27T04:24:51.312Z,1.80
2019-01-27T04:25:25.866Z,2.00
2019-01-27T04:26:00.432Z,1.92
2019-01-27T04:26:34.972Z,2.12
2019-01-27T04:27:09.538Z,2.42
2019-01-27T04:27:44.262Z,1.80
2019-01-27T04:28:18.853Z,1.50
2019-01-27T04:28:53.355Z,2.17
2019-01-27T04:29:27.881Z,2.22
2019-01-27T04:30:02.373Z,2.00
2019-01-27T04:30:37.426Z,2.22
2019-01-27T04:31:12.012Z,1.82
2019-01-27T04:31:48.761Z,1.92
2019-01-27T04:32:25.443Z,2.15
2019-01-27T04:33:00.049Z,1.80
2019-01-27T04:33:34.551Z,2.20
2019-01-27T04:34:09.209Z,2.05
2019-01-27T04:34:43.704Z,1.82
2019-01-27T04:35:18.410Z,2.27
2019-01-27T04:35:52.904Z,2.15
2019-01-27T04:36:27.415Z,2.17
2019-01-27T04:37:02.055Z,2.12
2019-01-27T04:37:36.556Z,2.47
2019-01-27T04:38:11.136Z,2.35
2019-01-27T04:38:45.700Z,2.22
2019-01-27T04:39:20.197Z,2.08
2019-01-27T04:39:54.716Z,2.00
2019-01-27T04:40:29.200Z,2.12
2019-01-27T04:41:03.985Z,2.40
2019-01-27T04:41:38.684Z,2.10
2019-01-27T04:42:13.205Z,2.05
2019-01-27T04:42:47.847Z,1.90
2019-01-27T04:43:22.927Z,1.72
2019-01-27T04:43:57.417Z,2.05
2019-01-27T04:44:31.951Z,2.55
2019-01-27T04:45:09.768Z,1.77
2019-01-27T04:45:44.417Z,2.02
2019-01-27T04:46:19.027Z,1.85
2019-01-27T04:46:53.581Z,1.80
2019-01-27T04:47:28.308Z,2.17
2019-01-27T04:48:03.033Z,2.65
2019-01-27T04:48:37.593Z,1.85
2019-01-27T04:49:12.103Z,2.40
2019-01-27T04:49:46.667Z,1.60
2019-01-27T04:50:21.247Z,2.42
2019-01-27T04:50:55.751Z,2.20
2019-01-27T04:51:30.264Z,2.22
2019-01-27T04:52:05.106Z,1.87
2019-01-27T04:52:39.594Z,2.42
2019-01-27T04:53:14.094Z,2.20
2019-01-27T04:53:48.596Z,1.65
2019-01-27T04:54:23.151Z,2.20
2019-01-27T04:54:57.644Z,2.15
2019-01-27T04:55:32.284Z,2.20
2019-01-27T04:56:06.948Z,2.00
2019-01-27T04:56:41.527Z,2.33
2019-01-27T04:57:16.032Z,2.65
2019-01-27T04:57:50.600Z,2.45
2019-01-27T04:58:25.124Z,2.10
2019-01-27T04:58:59.613Z,2.37
2019-01-27T04:59:34.108Z,2.70
2019-01-27T05:00:11.736Z,2.00
2019-01-27T05:00:46.219Z,2.30
2019-01-27T05:01:20.773Z,2.40
2019-01-27T05:01:55.290Z,1.82
2019-01-27T05:02:31.434Z,2.37
2019-01-27T05:03:19.396Z,2.65
2019-01-27T05:03:55.554Z,2.10
2019-01-27T05:04:31.393Z,3.15
2019-01-27T05:05:09.522Z,2.45
2019-01-27T05:05:44.107Z,2.15
2019-01-27T05:06:18.618Z,2.15
2019-01-27T05:06:53.106Z,2.15
2019-01-27T05:07:27.757Z,2.85
2019-01-27T05:08:02.320Z,2.17
2019-01-27T05:08:36.814Z,2.22
2019-01-27T05:09:11.389Z,2.85
2019-01-27T05:09:45.877Z,2.45
2019-01-27T05:10:20.398Z,2.30
2019-01-27T05:10:54.952Z,2.25
2019-01-27T05:11:29.498Z,2.20
2019-01-27T05:12:04.635Z,2.30
2019-01-27T05:12:39.205Z,2.20
2019-01-27T05:13:13.701Z,2.33
2019-01-27T05:13:48.200Z,2.25
2019-01-27T05:14:22.778Z,2.70
2019-01-27T05:14:57.361Z,2.17
2019-01-27T05:15:32.923Z,2.10
2019-01-27T05:16:07.413Z,2.42
2019-01-27T05:16:41.948Z,2.10
2019-01-27T05:17:16.473Z,2.25
2019-01-27T05:17:51.092Z,1.80
2019-01-27T05:18:25.665Z,3.00
2019-01-27T05:19:00.219Z,2.10
2019-01-27T05:19:34.784Z,2.40
2019-01-27T05:20:11.416Z,2.15
2019-01-27T05:20:45.930Z,1.92
2019-01-27T05:21:20.494Z,2.20
2019-01-27T05:21:54.990Z,2.30
2019-01-27T05:22:29.488Z,2.45
2019-01-27T05:23:04.186Z,2.30
2019-01-27T05:23:38.759Z,2.27
2019-01-27T05:24:13.321Z,1.75
2019-01-27T05:24:47.813Z,2.37
2019-01-27T05:25:22.376Z,2.25
2019-01-27T05:25:56.868Z,2.20
2019-01-27T05:26:31.496Z,2.10
2019-01-27T05:27:06.006Z,2.12
2019-01-27T05:27:40.586Z,2.30
2019-01-27T05:28:15.501Z,2.47
2019-01-27T05:28:50.066Z,1.98
2019-01-27T05:29:24.590Z,2.33
2019-01-27T05:29:59.203Z,2.12
2019-01-27T05:30:33.756Z,2.60
2019-01-27T05:31:08.302Z,1.80
2019-01-27T05:31:42.794Z,2.10
2019-01-27T05:32:17.360Z,2.77
2019-01-27T05:32:51.879Z,2.02
2019-01-27T05:33:26.451Z,2.35
2019-01-27T05:34:00.967Z,2.25
2019-01-27T05:34:35.460Z,1.70
2019-01-27T05:35:10.124Z,2.45
2019-01-27T05:35:44.629Z,1.95
2019-01-27T05:36:19.184Z,1.90
2019-01-27T05:36:53.682Z,1.80
2019-01-27T05:37:28.264Z,2.25
2019-01-27T05:38:02.849Z,2.05
2019-01-27T05:38:37.409Z,2.35
2019-01-27T05:39:14.567Z,2.00
2019-01-27T05:39:48.175Z,1.75
2019-01-27T05:40:23.035Z,2.27
2019-01-27T05:40:57.603Z,1.65
2019-01-27T05:41:32.097Z,1.67
2019-01-27T05:42:06.605Z,2.20
2019-01-27T05:42:41.165Z,2.10
2019-01-27T05:43:15.652Z,2.30
2019-01-27T05:43:50.185Z,1.95
2019-01-27T05:44:24.689Z,1.95
2019-01-27T05:44:59.256Z,1.75
2019-01-27T05:45:33.791Z,1.80
2019-01-27T05:46:08.334Z,1.75
2019-01-27T05:46:42.839Z,1.82
2019-01-27T05:47:17.337Z,1.65
2019-01-27T05:47:51.899Z,1.90
2019-01-27T05:48:26.393Z,1.35
2019-01-27T05:49:00.890Z,1.50
2019-01-27T05:49:35.409Z,1.82
2019-01-27T05:50:12.414Z,2.15
2019-01-27T05:50:46.899Z,1.75
2019-01-27T05:51:21.402Z,1.62
2019-01-27T05:51:55.900Z,1.80
2019-01-27T05:52:30.395Z,1.42
2019-01-27T05:53:05.225Z,1.50
2019-01-27T05:53:39.719Z,1.45
2019-01-27T05:54:14.432Z,1.65
2019-01-27T05:54:48.974Z,2.00
2019-01-27T05:55:23.492Z,1.77
2019-01-27T05:55:57.984Z,1.87
2019-01-27T05:56:32.478Z,1.80
2019-01-27T05:57:07.275Z,1.77
2019-01-27T05:57:41.763Z,1.82
2019-01-27T05:58:16.269Z,1.65
2019-01-27T05:58:50.817Z,2.10
2019-01-27T05:59:25.323Z,1.77
2019-01-27T05:59:59.842Z,1.92
2019-01-27T06:00:38.798Z,1.62
2019-01-27T06:01:13.302Z,2.00
2019-01-27T06:01:47.804Z,1.67
2019-01-27T06:02:22.370Z,2.22
2019-01-27T06:02:56.866Z,1.22
2019-01-27T06:03:31.372Z,2.20
2019-01-27T06:04:05.866Z,1.65
2019-01-27T06:04:40.385Z,1.75
2019-01-27T06:05:14.941Z,1.50
2019-01-27T06:05:49.462Z,1.32
2019-01-27T06:06:24.102Z,1.80
2019-01-27T06:06:58.685Z,2.05
2019-01-27T06:07:33.180Z,1.82
2019-01-27T06:08:07.949Z,1.70
2019-01-27T06:08:42.445Z,1.90
2019-01-27T06:09:16.940Z,1.85
2019-01-27T06:09:51.421Z,1.82
2019-01-27T06:10:26.418Z,1.85
2019-01-27T06:11:02.465Z,1.80
2019-01-27T06:11:36.964Z,1.30
2019-01-27T06:12:11.552Z,2.45
2019-01-27T06:12:46.067Z,1.67
2019-01-27T06:13:20.562Z,1.60
2019-01-27T06:13:55.071Z,1.55
2019-01-27T06:14:29.621Z,1.52
2019-01-27T06:15:06.786Z,1.67
2019-01-27T06:15:41.333Z,2.20
2019-01-27T06:16:15.870Z,1.60
2019-01-27T06:16:50.393Z,1.85
2019-01-27T06:17:25.101Z,1.92
2019-01-27T06:17:59.602Z,1.60
2019-01-27T06:18:34.189Z,1.47
2019-01-27T06:19:10.352Z,1.90
2019-01-27T06:19:44.940Z,1.55
2019-01-27T06:20:20.560Z,1.50
2019-01-27T06:20:55.125Z,1.55
2019-01-27T06:21:29.619Z,1.60
2019-01-27T06:22:04.189Z,1.92
2019-01-27T06:22:38.860Z,2.08
2019-01-27T06:23:13.396Z,1.50
2019-01-27T06:23:49.090Z,1.72
2019-01-27T06:24:23.677Z,1.32
2019-01-27T06:25:00.832Z,1.70
2019-01-27T06:25:34.505Z,1.52
2019-01-27T06:26:09.024Z,1.60
2019-01-27T06:26:43.671Z,1.65
2019-01-27T06:27:18.169Z,1.40
2019-01-27T06:27:52.666Z,1.35
2019-01-27T06:28:27.172Z,1.70
2019-01-27T06:29:01.673Z,1.87
2019-01-27T06:29:36.182Z,1.45
2019-01-27T06:30:14.174Z,1.72
2019-01-27T06:30:48.686Z,1.75
2019-01-27T06:31:23.195Z,1.62
2019-01-27T06:31:57.764Z,2.00
2019-01-27T06:32:36.569Z,1.60
2019-01-27T06:33:22.227Z,1.60
2019-01-27T06:33:57.211Z,1.90
2019-01-27T06:34:31.710Z,1.95
2019-01-27T06:35:06.741Z,1.75
2019-01-27T06:35:41.254Z,2.22
2019-01-27T06:36:15.771Z,1.60
2019-01-27T06:36:50.319Z,2.70
2019-01-27T06:37:25.067Z,2.47
2019-01-27T06:37:59.841Z,1.80
2019-01-27T06:38:34.440Z,2.02
2019-01-27T06:39:10.321Z,1.70
2019-01-27T06:39:45.119Z,1.62
2019-01-27T06:40:19.611Z,1.50
2019-01-27T06:40:54.178Z,1.65
2019-01-27T06:41:28.768Z,1.60
2019-01-27T06:42:03.273Z,1.60
2019-01-27T06:42:37.841Z,1.80
2019-01-27T06:43:12.330Z,1.95
2019-01-27T06:43:46.845Z,1.72
2019-01-27T06:44:21.340Z,1.90
2019-01-27T06:44:55.907Z,1.65
2019-01-27T06:45:30.414Z,1.50
2019-01-27T06:46:04.892Z,1.90
2019-01-27T06:46:39.476Z,1.95
2019-01-27T06:47:14.008Z,1.65
2019-01-27T06:47:48.505Z,1.90
2019-01-27T06:48:23.064Z,1.50
2019-01-27T06:48:57.576Z,1.07
2019-01-27T06:49:32.132Z,1.90
2019-01-27T06:50:10.028Z,1.60
2019-01-27T06:50:44.549Z,1.60
2019-01-27T06:51:19.073Z,1.52
2019-01-27T06:51:53.565Z,2.00
2019-01-27T06:52:28.127Z,1.72
2019-01-27T06:53:02.656Z,1.70
2019-01-27T06:53:37.159Z,1.90
2019-01-27T06:54:11.648Z,1.67
2019-01-27T06:54:46.154Z,2.10
2019-01-27T06:55:21.874Z,2.58
2019-01-27T06:55:56.368Z,2.15
2019-01-27T06:56:30.933Z,1.60
2019-01-27T06:57:05.483Z,1.70
2019-01-27T06:57:39.984Z,1.60
2019-01-27T06:58:14.461Z,1.60
2019-01-27T06:59:03.238Z,1.80
2019-01-27T06:59:39.371Z,1.20
2019-01-27T07:00:18.815Z,1.25
2019-01-27T07:01:03.976Z,1.95
2019-01-27T07:01:45.832Z,1.55
2019-01-27T07:02:29.175Z,1.40
2019-01-27T07:03:00.075Z,1.35
2019-01-27T07:03:36.321Z,1.32
2019-01-27T07:04:12.484Z,1.75
2019-01-27T07:04:48.641Z,1.50
2019-01-27T07:05:24.823Z,1.30
2019-01-27T07:06:13.510Z,1.77
2019-01-27T07:06:49.650Z,1.20
2019-01-27T07:07:25.774Z,1.47
2019-01-27T07:08:10.999Z,1.90
2019-01-27T07:08:52.872Z,1.52
2019-01-27T07:09:34.724Z,1.50
2019-01-27T07:10:14.165Z,1.57
2019-01-27T07:10:56.260Z,1.85
2019-01-27T07:11:32.412Z,1.80
2019-01-27T07:12:08.690Z,1.92
2019-01-27T07:12:44.917Z,1.50
2019-01-27T07:13:39.164Z,1.25
2019-01-27T07:14:24.126Z,1.27
2019-01-27T07:15:00.341Z,1.45
2019-01-27T07:15:39.511Z,1.17
2019-01-27T07:16:31.008Z,1.60
2019-01-27T07:17:24.020Z,1.25
2019-01-27T07:18:08.819Z,1.72
2019-01-27T07:18:45.024Z,1.00
2019-01-27T07:19:37.416Z,1.30
2019-01-27T07:20:26.234Z,1.40
2019-01-27T07:21:11.308Z,1.80
2019-01-27T07:22:04.408Z,1.67
2019-01-27T07:22:40.552Z,1.70
2019-01-27T07:23:32.846Z,1.25
2019-01-27T07:24:09.059Z,1.57
2019-01-27T07:24:45.189Z,1.40
2019-01-27T07:25:39.164Z,1.70
2019-01-27T07:26:15.295Z,1.55
2019-01-27T07:27:07.760Z,1.67
2019-01-27T07:27:52.643Z,1.52
2019-01-27T07:28:34.602Z,1.12
2019-01-27T07:29:22.954Z,1.17
2019-01-27T07:30:10.891Z,1.62
2019-01-27T07:30:47.020Z,1.45
2019-01-27T07:31:39.220Z,1.75
2019-01-27T07:32:21.281Z,1.40
2019-01-27T07:33:09.666Z,1.30
2019-01-27T07:33:54.928Z,1.62
2019-01-27T07:34:31.061Z,1.40
2019-01-27T07:35:10.272Z,1.07
2019-01-27T07:35:52.410Z,1.50
2019-01-27T07:36:34.567Z,1.47
2019-01-27T07:37:27.255Z,1.10
2019-01-27T07:38:06.140Z,1.80
2019-01-27T07:38:42.760Z,1.40
2019-01-27T07:39:24.740Z,1.65
2019-01-27T07:40:00.982Z,1.57
2019-01-27T07:40:37.189Z,1.30
2019-01-27T07:41:15.897Z,1.52
2019-01-27T07:41:52.030Z,1.60
2019-01-27T07:42:37.448Z,1.75
2019-01-27T07:43:19.414Z,1.60
2019-01-27T07:43:57.974Z,1.10
2019-01-27T07:44:45.898Z,1.80
2019-01-27T07:45:33.910Z,1.75
2019-01-27T07:46:13.331Z,2.92
2019-01-27T07:46:52.407Z,1.90
2019-01-27T07:47:28.544Z,1.20
2019-01-27T07:48:04.711Z,1.80
2019-01-27T07:48:56.912Z,1.22
2019-01-27T07:49:33.105Z,1.72
2019-01-27T07:50:28.333Z,1.30
2019-01-27T07:51:07.249Z,1.20
2019-01-27T07:51:48.989Z,1.75
2019-01-27T07:52:33.839Z,1.52
2019-01-27T07:53:12.649Z,1.70
2019-01-27T07:53:48.863Z,1.72
2019-01-27T07:54:41.525Z,1.52